Data for 08/14/2005

Time Sea-Level Adjusted Pressure Absolute Pressure Temperature Relative Humidity Dew Point   
(mb) (inHg) (mb) (inHg) (C) (F) (%) (C) (F)
00:05 1022 30.18 851 25.13 7 44.6 82 4.1 39.5
00:10 1022 30.18 851 25.13 6.8 44.3 82 3.9 39.1
00:15 1022 30.18 851 25.13 7 44.5 81 3.9 39
00:20 1022 30.18 851 25.13 6.8 44.2 82 3.9 39
00:25 1022 30.18 851 25.13 6.5 43.8 82 3.7 38.7
00:30 1022 30.18 851 25.13 6.4 43.6 83 3.7 38.7
00:35 1022 30.18 851 25.13 6.6 43.9 83 3.9 39
00:40 1022 30.18 851 25.13 6.3 43.4 84 3.8 38.8
00:45 1022 30.18 851 25.13 6.3 43.3 83 3.6 38.5
00:50 1022 30.18 851 25.13 6.3 43.3 83 3.6 38.5
00:55 1022 30.18 851 25.13 6.3 43.4 83 3.6 38.5
01:00 1022 30.18 851 25.13 6.3 43.3 83 3.6 38.5
01:05 1022 30.18 851 25.13 6.2 43.1 83 3.6 38.4
01:10 1022 30.18 851 25.13 6.2 43.1 83 3.5 38.3
01:15 1022 30.18 851 25.13 6.5 43.7 82 3.6 38.5
01:20 1022 30.18 851 25.13 6.5 43.7 82 3.6 38.5
01:25 1022 30.18 851 25.13 6.3 43.4 82 3.5 38.3
01:30 1022 30.18 851 25.13 6.3 43.4 82 3.5 38.4
01:35 1022 30.18 851 25.13 6.2 43.2 83 3.5 38.3
01:40 1022 30.18 851 25.13 6 42.8 83 3.4 38.1
01:45 1022 30.18 851 25.13 6 42.8 83 3.3 38
01:50 1022 30.18 851 25.13 6 42.8 83 3.4 38
01:55 1022 30.18 851 25.13 5.8 42.5 83 3.2 37.8
02:00 1022 30.18 851 25.13 5.8 42.4 83 3.2 37.7
02:05 1022 30.18 851 25.13 5.9 42.6 82 3.1 37.6
02:10 1022 30.18 851 25.13 6.1 43 81 3.1 37.6
02:15 1022 30.18 851 25.13 6 42.9 82 3.1 37.6
02:20 1022 30.18 851 25.13 5.6 42.1 83 2.9 37.2
02:25 1022 30.18 851 25.13 5.5 41.9 82 2.8 37
02:30 1022 30.18 851 25.13 5.6 42.2 81 2.7 36.8
02:35 1022 30.18 851 25.13 5.7 42.2 81 2.7 36.9
02:40 1022 30.18 852 25.16 5.5 41.9 81 2.5 36.5
02:45 1022 30.18 852 25.16 5.5 41.9 80 2.3 36.1
02:50 1022 30.18 852 25.16 5.3 41.6 81 2.3 36.1
02:55 1022 30.18 851 25.13 5.1 41.1 81 2.1 35.7
03:00 1022 30.18 852 25.16 5.1 41.2 79 1.8 35.2
03:05 1022 30.18 852 25.16 5.6 42 77 1.9 35.4
03:10 1022 30.18 852 25.16 5.9 42.6 75 1.9 35.4
03:15 1022 30.18 852 25.16 5.9 42.6 75 1.7 35.1
03:20 1022 30.18 852 25.16 5.8 42.5 76 1.9 35.4
03:25 1022 30.18 852 25.16 5.5 41.9 76 1.6 34.8
03:30 1022 30.18 852 25.16 5.3 41.6 76 1.4 34.5
03:35 1022 30.18 852 25.16 5.4 41.7 73 1 33.8
03:40 1022 30.18 852 25.16 5.4 41.6 76 1.5 34.7
03:45 1022 30.18 852 25.16 5.3 41.5 75 1.3 34.3
03:50 1022 30.18 852 25.16 5.4 41.7 75 1.4 34.6
03:55 1022 30.18 852 25.16 5.4 41.6 77 1.6 34.8
04:00 1022 30.18 851 25.13 5.3 41.5 77 1.5 34.7
04:05 1022 30.18 852 25.16 5.2 41.3 78 1.6 35
04:10 1022 30.18 851 25.13 5 41 77 1.4 34.5
04:15 1022 30.18 851 25.13 4.9 40.8 77 1.2 34.2
04:20 1022 30.18 851 25.13 4.7 40.4 77 1 33.9
04:25 1022 30.18 851 25.13 4.6 40.2 79 1.2 34.2
04:30 1022 30.18 851 25.13 4.7 40.5 78 1.2 34.2
04:35 1022 30.18 851 25.13 5 41 75 0.9 33.7
04:40 1022 30.18 851 25.13 5.3 41.6 75 1.3 34.3
04:45 1022 30.18 851 25.13 5.3 41.5 74 1.1 34
04:50 1022 30.18 851 25.13 5 41.1 74 0.8 33.5
04:55 1022 30.18 851 25.13 4.9 40.9 75 1 33.7
05:00 1022 30.18 851 25.13 4.8 40.6 75 0.7 33.2
05:05 1022 30.18 851 25.13 4.9 40.8 73 0.5 32.9
05:10 1022 30.18 851 25.13 5.1 41.1 72 0.5 32.9
05:15 1022 30.18 851 25.13 5 41 70 0 32
05:20 1022 30.18 851 25.13 4.8 40.7 69 -0.3 31.4
05:25 1022 30.18 851 25.13 4.8 40.6 70 -0.2 31.7
05:30 1022 30.18 851 25.13 4.5 40.2 72 -0.1 31.8
05:35 1022 30.18 851 25.13 4.2 39.6 75 0.3 32.5
05:40 1022 30.18 851 25.13 4.2 39.6 75 0.3 32.5
05:45 1022 30.18 851 25.13 4.7 40.5 73 0.2 32.4
05:50 1022 30.18 851 25.13 4.8 40.7 72 0.3 32.5
05:55 1022 30.18 851 25.13 4.6 40.3 75 0.6 33
06:00 1022 30.18 851 25.13 4.1 39.4 77 0.4 32.8
06:05 1022 30.18 851 25.13 3.9 39 77 0.2 32.3
06:10 1022 30.18 851 25.13 4 39.2 76 0.1 32.2
06:15 1022 30.18 851 25.13 4 39.3 76 0.3 32.5
06:20 1022 30.18 851 25.13 3.9 39 77 0.2 32.4
06:25 1022 30.18 851 25.13 3.8 38.9 78 0.4 32.6
06:30 1022 30.18 851 25.13 3.6 38.6 79 0.3 32.5
06:35 1022 30.18 851 25.13 3.7 38.6 77 -0 32
06:40 1022 30.18 851 25.13 4 39.2 75 0.1 32.1
06:45 1022 30.18 851 25.13 4.5 40.2 75 0.6 33
06:50 1022 30.18 851 25.13 4.8 40.6 75 0.7 33.3
06:55 1022 30.18 851 25.13 4.7 40.4 76 0.8 33.5
07:00 1022 30.18 851 25.13 4.6 40.2 77 0.8 33.5
07:05 1022 30.18 851 25.13 4.4 40 76 0.5 33
07:10 1022 30.18 851 25.13 4.6 40.4 74 0.4 32.8
07:15 1022 30.18 851 25.13 5.1 41.1 72 0.5 32.9
07:20 1022 30.18 851 25.13 5.5 41.9 72 0.9 33.5
07:25 1022 30.18 852 25.16 5.6 42.1 73 1.1 33.9
07:30 1022 30.18 852 25.16 5.9 42.6 73 1.3 34.4
07:35 1022 30.18 852 25.16 6 42.8 72 1.4 34.6
07:40 1022 30.18 852 25.16 6.6 43.8 71 1.6 34.9
07:45 1023 30.21 852 25.16 7 44.5 70 1.8 35.3
07:50 1023 30.21 852 25.16 7.4 45.3 69 2.1 35.7
07:55 1023 30.21 852 25.16 7.4 45.3 69 2.1 35.8
08:00 1023 30.21 852 25.16 7.6 45.8 69 2.4 36.3
08:05 1023 30.21 852 25.16 8 46.4 67 2.3 36.1
08:10 1023 30.21 852 25.16 8.3 47 66 2.3 36.2
08:15 1023 30.21 852 25.16 8.6 47.6 64 2.3 36.1
08:20 1023 30.21 852 25.16 9.2 48.6 64 2.7 36.9
08:25 1023 30.21 852 25.16 10 50 62 3 37.4
08:30 1023 30.21 852 25.16 10.3 50.6 60 3 37.3
08:35 1023 30.21 852 25.16 10.4 50.6 61 3.3 37.9
08:40 1023 30.21 852 25.16 11 51.7 57 2.8 37
08:45 1023 30.21 852 25.16 11.2 52.1 58 3.4 38.1
08:50 1023 30.21 852 25.16 11.3 52.3 57 3.2 37.7
08:55 1023 30.21 852 25.16 11.2 52.2 58 3.3 37.9
09:00 1023 30.21 852 25.16 11.1 52 57 2.9 37.3
09:05 1023 30.21 852 25.16 11.9 53.4 56 3.4 38.1
09:10 1023 30.21 852 25.16 12.3 54.1 57 4.1 39.4
09:15 1023 30.21 852 25.16 12.4 54.2 56 4 39.2
09:20 1023 30.21 852 25.16 12.2 54 57 4 39.3
09:25 1023 30.21 852 25.16 12.3 54.1 56 3.7 38.7
09:30 1023 30.21 852 25.16 12.4 54.4 57 4.1 39.4
09:35 1023 30.21 852 25.16 13 55.3 54 3.9 39
09:40 1023 30.21 852 25.16 13 55.5 55 4.1 39.5
09:45 1023 30.21 852 25.16 13.3 55.9 51 3.5 38.3
09:50 1023 30.21 852 25.16 12.7 54.9 52 3.3 38
09:55 1023 30.21 852 25.16 13.5 56.2 49 3 37.4
10:00 1023 30.21 852 25.16 14.2 57.6 46 2.9 37.3
10:05 1023 30.21 852 25.16 14.2 57.5 48 3.4 38
10:10 1023 30.21 852 25.16 14.4 57.9 43 2.2 35.9
10:15 1023 30.21 852 25.16 14.7 58.5 44 2.6 36.7
10:20 1023 30.21 852 25.16 14.5 58.2 47 3.5 38.4
10:25 1022 30.18 852 25.16 14.2 57.5 50 4.1 39.4
10:30 1022 30.18 852 25.16 14.3 57.7 48 3.6 38.5
10:35 1022 30.18 852 25.16 14.1 57.4 50 3.8 38.9
10:40 1022 30.18 852 25.16 14.5 58 47 3.4 38.2
10:45 1022 30.18 852 25.16 15.2 59.3 46 3.6 38.5
10:50 1022 30.18 852 25.16 15.5 59.8 46 4.1 39.4
10:55 1022 30.18 851 25.13 14.7 58.4 47 3.5 38.3
11:00 1022 30.18 851 25.13 14.7 58.5 45 2.9 37.2
11:05 1022 30.18 851 25.13 14.7 58.4 45 2.9 37.2
11:10 1022 30.18 851 25.13 15.3 59.6 44 3.1 37.6
11:15 1022 30.18 851 25.13 15.5 59.9 43 3 37.5
11:20 1022 30.18 851 25.13 16.3 61.4 41 3.2 37.7
11:25 1022 30.18 851 25.13 16.6 61.9 40 3.2 37.7
11:30 1022 30.18 851 25.13 16.1 60.9 43 3.5 38.4
11:35 1022 30.18 851 25.13 16.5 61.7 40 3.1 37.6
11:40 1022 30.18 851 25.13 16.9 62.4 37 2.2 36
11:45 1022 30.18 851 25.13 16.5 61.7 35 1.1 34
11:50 1022 30.18 851 25.13 17.7 63.8 35 2.2 36
11:55 1022 30.18 851 25.13 17.8 64 35 2.4 36.3
12:00 1022 30.18 851 25.13 17.6 63.6 33 1.3 34.3
12:05 1022 30.18 851 25.13 16.9 62.4 35 1.4 34.5
12:10 1022 30.18 851 25.13 17.8 64 34 1.9 35.4
12:15 1022 30.18 851 25.13 18.4 65.1 33 2.1 35.8
12:20 1022 30.18 851 25.13 18.4 65.1 33 2 35.6
12:25 1022 30.18 851 25.13 19.1 66.4 31 1.6 34.9
12:30 1022 30.18 851 25.13 19.5 67.1 29 1 33.8
12:35 1022 30.18 851 25.13 19.1 66.3 28 0.3 32.5
12:40 1022 30.18 851 25.13 19.2 66.5 27 0 32
12:45 1022 30.18 851 25.13 19.6 67.2 29 1.1 33.9
12:50 1021 30.15 851 25.13 19.9 67.8 27 0.5 32.8
12:55 1021 30.15 851 25.13 19.8 67.7 28 1 33.9
13:00 1021 30.15 850 25.1 20.2 68.4 27 0.7 33.2
13:05 1021 30.15 850 25.1 20.4 68.7 27 0.9 33.6
13:10 1021 30.15 850 25.1 19.4 67 27 0.3 32.5
13:15 1021 30.15 850 25.1 19.8 67.7 27 0.6 33.1
13:20 1021 30.15 850 25.1 20.5 68.9 27 0.9 33.6
13:25 1021 30.15 850 25.1 21 69.7 25 0.4 32.7
13:30 1021 30.15 850 25.1 20.8 69.4 26 0.6 33.2
13:35 1021 30.15 850 25.1 20.7 69.3 24 -0.2 31.7
13:40 1021 30.15 850 25.1 20.5 68.8 25 0 32.1
13:45 1021 30.15 850 25.1 20.6 69.1 25 0.3 32.5
13:50 1021 30.15 850 25.1 19.9 67.8 26 0.2 32.3
13:55 1021 30.15 850 25.1 20.8 69.5 25 0.1 32.1
14:00 1021 30.15 850 25.1 21 69.7 24 -0 31.9
14:05 1021 30.15 850 25.1 21.2 70.1 23 -0.7 30.7
14:10 1021 30.15 850 25.1 21.7 71.1 22 -0.8 30.6
14:15 1020 30.12 850 25.1 21.6 70.8 23 -0.2 31.7
14:20 1020 30.12 850 25.1 21.7 71.1 22 -0.7 30.7
14:25 1020 30.12 850 25.1 21.9 71.5 22 -0.6 30.9
14:30 1020 30.12 850 25.1 22.1 71.7 21 -1.2 29.8
14:35 1020 30.12 850 25.1 22.6 72.7 22 -0.2 31.6
14:40 1020 30.12 849 25.07 22.6 72.6 21 -0.6 30.9
14:45 1020 30.12 849 25.07 22.2 72 21 -1.1 30
14:50 1020 30.12 849 25.07 21.9 71.4 21 -1.2 29.8
14:55 1020 30.12 849 25.07 22.7 72.9 19 -2.2 28.1
15:00 1020 30.12 849 25.07 22 71.6 21 -1.4 29.4
15:05 1020 30.12 849 25.07 22.6 72.6 19 -1.9 28.5
15:10 1020 30.12 849 25.07 23 73.3 19 -1.7 29
15:15 1020 30.12 849 25.07 23.1 73.5 18 -2.1 28.3
15:20 1020 30.12 849 25.07 23.3 73.9 19 -1.5 29.3
15:25 1020 30.12 849 25.07 23.6 74.4 19 -1.3 29.7
15:30 1020 30.12 849 25.07 23.4 74.1 17 -2.4 27.6
15:35 1020 30.12 849 25.07 23.9 75 17 -2.5 27.4
15:40 1020 30.12 849 25.07 23.3 74 18 -2.2 28
15:45 1020 30.12 849 25.07 22.9 73.3 19 -2 28.4
15:50 1020 30.12 849 25.07 23.6 74.4 16 -3.4 25.9
15:55 1020 30.12 849 25.07 23.8 74.8 16 -3.3 26
16:00 1020 30.12 849 25.07 24.1 75.3 16 -2.9 26.7
16:05 1020 30.12 849 25.07 24 75.2 16 -3.4 26
16:10 1020 30.12 849 25.07 23.9 75 16 -3.2 26.3
16:15 1020 30.12 849 25.07 24 75.1 16 -3.1 26.4
16:20 1019 30.09 849 25.07 24.1 75.4 16 -3.2 26.2
16:25 1019 30.09 849 25.07 23.9 75.1 16 -3.6 25.5
16:30 1019 30.09 849 25.07 24 75.1 17 -2.2 28
16:35 1019 30.09 849 25.07 24.2 75.5 15 -3.9 25
16:40 1019 30.09 849 25.07 24.1 75.3 15 -4.1 24.6
16:45 1019 30.09 849 25.07 24.3 75.8 15 -4 24.8
16:50 1019 30.09 848 25.04 23.4 74.1 15 -4.9 23.2
16:55 1019 30.09 848 25.04 22.4 72.4 15 -5.6 21.9
17:00 1019 30.09 848 25.04 23 73.5 14 -5.6 22
17:05 1019 30.09 848 25.04 23.6 74.4 15 -4.6 23.7
17:10 1019 30.09 848 25.04 24.4 75.9 15 -3.9 25
17:15 1019 30.09 848 25.04 23.2 73.8 15 -4.4 24.1
17:20 1019 30.09 848 25.04 23.2 73.7 16 -3.8 25.1
17:25 1019 30.09 848 25.04 23.8 74.8 16 -3.7 25.4
17:30 1019 30.09 848 25.04 24.1 75.3 16 -3.2 26.2
17:35 1019 30.09 848 25.04 24.4 75.8 16 -3.2 26.2
17:40 1019 30.09 848 25.04 24.1 75.4 17 -2.2 28.1
17:45 1019 30.09 848 25.04 24.1 75.3 16 -3.3 26.1
17:50 1019 30.09 848 25.04 24.4 75.9 16 -2.8 27
17:55 1019 30.09 848 25.04 24.4 75.8 17 -2 28.4
18:00 1019 30.09 848 25.04 24.2 75.6 16 -2.8 27
18:05 1019 30.09 848 25.04 24.1 75.3 16 -3.1 26.4
18:10 1019 30.09 848 25.04 23.9 75.1 17 -2.3 27.8
18:15 1019 30.09 848 25.04 23.3 73.9 17 -2.8 27
18:20 1019 30.09 848 25.04 23.6 74.5 18 -1.7 28.9
18:25 1019 30.09 848 25.04 23.9 75 16 -3.1 26.4
18:30 1019 30.09 848 25.04 23.8 74.9 18 -1.5 29.4
18:35 1019 30.09 848 25.04 23.8 74.8 17 -2.2 28
18:40 1019 30.09 848 25.04 23.5 74.4 17 -2.7 27.1
18:45 1019 30.09 848 25.04 23.2 73.8 19 -1.7 29
18:50 1019 30.09 848 25.04 23.2 73.7 19 -1.5 29.3
18:55 1019 30.09 848 25.04 22.8 73.1 20 -1.1 30.1
19:00 1019 30.09 848 25.04 22.5 72.5 21 -1 30.2
19:05 1019 30.09 848 25.04 22.3 72.1 21 -0.9 30.4
19:10 1019 30.09 848 25.04 22.1 71.9 21 -1 30.2
19:15 1019 30.09 848 25.04 22.1 71.7 22 -0.5 31
19:20 1019 30.09 848 25.04 22 71.7 21 -1.1 30
19:25 1019 30.09 848 25.04 21.9 71.3 22 -0.3 31.4
19:30 1019 30.09 848 25.04 21.8 71.2 22 -0.4 31.3
19:35 1019 30.09 848 25.04 21.6 71 23 -0.3 31.4
19:40 1019 30.09 848 25.04 21.5 70.6 24 0.4 32.6
19:45 1019 30.09 848 25.04 21.3 70.3 25 0.6 33
19:50 1019 30.09 848 25.04 21.2 70.1 25 0.3 32.5
19:55 1019 30.09 848 25.04 21 69.9 24 0.1 32.2
20:00 1019 30.09 848 25.04 21 69.7 24 -0.3 31.5
20:05 1019 30.09 848 25.04 20.8 69.4 28 1.9 35.4
20:10 1019 30.09 848 25.04 20.1 68.1 33 3.3 38
20:15 1019 30.09 848 25.04 19.8 67.6 30 1.8 35.2
20:20 1019 30.09 848 25.04 19.7 67.5 34 3.6 38.4
20:25 1019 30.09 848 25.04 19.4 66.9 32 2.4 36.3
20:30 1019 30.09 848 25.04 19.7 67.4 26 -0.1 31.8
20:35 1019 30.09 848 25.04 19.6 67.2 30 1.5 34.8
20:40 1019 30.09 848 25.04 18.7 65.6 33 2 35.6
20:45 1019 30.09 848 25.04 18.4 65.1 30 0.8 33.4
20:50 1019 30.09 848 25.04 18.4 65.1 30 0.7 33.3
20:55 1019 30.09 848 25.04 18.2 64.8 31 1 33.8
21:00 1019 30.09 848 25.04 17.9 64.2 35 2.3 36.1
21:05 1019 30.09 848 25.04 16.9 62.4 42 3.9 39
21:10 1019 30.09 848 25.04 16.2 61.1 45 4.2 39.6
21:15 1019 30.09 849 25.07 16.2 61.1 38 1.8 35.2
21:20 1019 30.09 849 25.07 15.9 60.5 38 1.8 35.3
21:25 1019 30.09 849 25.07 15.5 59.8 39 1.7 35.1
21:30 1019 30.09 849 25.07 15.3 59.6 42 2.7 36.8
21:35 1019 30.09 849 25.07 15 58.9 41 2 35.6
21:40 1019 30.09 849 25.07 14.6 58.3 42 1.9 35.4
21:45 1020 30.12 849 25.07 14.5 58.2 39 1 33.8
21:50 1020 30.12 849 25.07 14.8 58.7 38 0.9 33.6
21:55 1020 30.12 849 25.07 14.6 58.3 36 -0.3 31.5
22:00 1020 30.12 849 25.07 14.6 58.3 42 1.8 35.2
22:05 1020 30.12 849 25.07 13.9 57 42 1.4 34.5
22:10 1020 30.12 849 25.07 14.1 57.4 37 -0.3 31.5
22:15 1020 30.12 849 25.07 14.5 58.2 38 0.4 32.8
22:20 1020 30.12 849 25.07 14.7 58.5 34 -0.8 30.6
22:25 1019 30.09 849 25.07 15.4 59.6 30 -1.9 28.7
22:30 1019 30.09 849 25.07 15.8 60.5 30 -1.8 28.8
22:35 1019 30.09 849 25.07 15.8 60.5 30 -1.6 29.1
22:40 1019 30.09 849 25.07 15.8 60.5 30 -1.6 29.1
22:45 1019 30.09 849 25.07 15.6 60.1 32 -1 30.1
22:50 1019 30.09 849 25.07 15.2 59.4 32 -1.2 29.9
22:55 1020 30.12 849 25.07 15 59 33 -1.1 30
23:00 1020 30.12 849 25.07 14.6 58.3 39 1 33.8
23:05 1020 30.12 849 25.07 13.6 56.5 41 0.6 33.2
23:10 1020 30.12 849 25.07 14.1 57.4 34 -1.6 29.2
23:15 1020 30.12 849 25.07 14.9 58.9 31 -2 28.5
23:20 1020 30.12 849 25.07 15.2 59.4 34 -0.5 31.1
23:25 1020 30.12 849 25.07 14.3 57.7 35 -0.8 30.5
23:30 1020 30.12 849 25.07 14.2 57.6 34 -1.2 29.9
23:35 1020 30.12 849 25.07 14.5 58.2 33 -1.6 29.2
23:40 1020 30.12 849 25.07 14.9 58.9 32 -1.6 29.1
23:45 1020 30.12 849 25.07 15.1 59.2 32 -1.6 29.2
23:50 1020 30.12 849 25.07 15.1 59.2 32 -1.3 29.7
23:55 1020 30.12 849 25.07 15 59 33 -1.2 29.8
24:00 1020 30.12 849 25.07 15 59 33 -1.2 29.8